createdAt,value
2024-05-09T00:01:37.124Z,100495.20
2024-05-09T00:04:08.368Z,100493.59
2024-05-09T00:06:40.539Z,100493.23
2024-05-09T00:09:15.049Z,100494.89
2024-05-09T00:11:48.104Z,100492.46
2024-05-09T00:14:20.358Z,100496.40
2024-05-09T00:16:53.938Z,100495.83
2024-05-09T00:19:27.572Z,100499.39
2024-05-09T00:21:59.544Z,100500.86
2024-05-09T00:24:32.676Z,100496.30
2024-05-09T00:27:05.235Z,100496.92
2024-05-09T00:29:38.004Z,100497.14
2024-05-09T00:32:11.098Z,100500.20
2024-05-09T00:34:44.996Z,100501.13
2024-05-09T00:37:18.114Z,100502.61
2024-05-09T00:39:50.261Z,100500.59
2024-05-09T00:42:25.807Z,100496.50
2024-05-09T00:44:58.214Z,100499.53
2024-05-09T00:47:30.934Z,100495.92
2024-05-09T00:50:09.788Z,100496.34
2024-05-09T00:52:44.762Z,100497.42
2024-05-09T00:55:18.402Z,100493.93
2024-05-09T00:57:53.334Z,100491.73
2024-05-09T01:00:32.097Z,100496.34
2024-05-09T01:03:13.236Z,100500.08
2024-05-09T01:05:46.867Z,100498.36
2024-05-09T01:08:19.774Z,100495.04
2024-05-09T01:10:53.754Z,100491.66
2024-05-09T01:13:26.525Z,100493.09
2024-05-09T01:15:59.447Z,100498.52
2024-05-09T01:18:32.490Z,100495.58
2024-05-09T01:21:08.220Z,100491.90
2024-05-09T01:23:40.588Z,100491.91
2024-05-09T01:26:14.373Z,100489.38
2024-05-09T01:28:46.932Z,100491.64
2024-05-09T01:31:19.362Z,100489.13
2024-05-09T01:33:52.067Z,100491.23
2024-05-09T01:36:25.142Z,100495.56
2024-05-09T01:38:57.958Z,100498.66
2024-05-09T01:41:30.532Z,100496.00
2024-05-09T01:44:03.990Z,100492.49
2024-05-09T01:46:39.175Z,100493.80
2024-05-09T01:49:11.853Z,100488.54
2024-05-09T01:51:47.233Z,100492.73
2024-05-09T01:54:19.456Z,100489.85
2024-05-09T01:56:52.564Z,100494.73
2024-05-09T01:59:27.055Z,100490.49
2024-05-09T02:01:59.656Z,100490.31
2024-05-09T02:04:32.812Z,100494.75
2024-05-09T02:07:06.972Z,100493.50
2024-05-09T02:09:39.121Z,100494.98
2024-05-09T02:12:12.978Z,100497.73
2024-05-09T02:14:48.852Z,100500.01
2024-05-09T02:17:21.437Z,100495.92
2024-05-09T02:19:54.972Z,100492.61
2024-05-09T02:22:28.676Z,100489.20
2024-05-09T02:25:01.094Z,100489.89
2024-05-09T02:27:34.083Z,100489.37
2024-05-09T02:30:18.371Z,100490.41
2024-05-09T02:32:59.063Z,100494.36
2024-05-09T02:35:32.617Z,100488.61
2024-05-09T02:38:05.857Z,100486.63
2024-05-09T02:40:39.706Z,100486.27
2024-05-09T02:43:14.863Z,100485.66
2024-05-09T02:45:47.283Z,100486.60
2024-05-09T02:48:19.296Z,100490.86
2024-05-09T02:50:53.450Z,100488.83
2024-05-09T02:53:26.840Z,100486.71
2024-05-09T02:55:58.837Z,100488.81
2024-05-09T02:58:30.806Z,100487.64
2024-05-09T03:01:05.121Z,100482.75
2024-05-09T03:03:40.180Z,100485.64
2024-05-09T03:06:14.584Z,100488.45
2024-05-09T03:08:49.229Z,100494.14
2024-05-09T03:11:25.660Z,100492.62
2024-05-09T03:13:59.274Z,100492.89
2024-05-09T03:16:32.560Z,100495.07
2024-05-09T03:19:05.770Z,100494.61
2024-05-09T03:21:42.622Z,100494.27
2024-05-09T03:24:15.203Z,100490.08
2024-05-09T03:26:52.591Z,100494.23
2024-05-09T03:29:27.694Z,100498.77
2024-05-09T03:31:59.602Z,100493.19
2024-05-09T03:34:32.671Z,100489.81
2024-05-09T03:37:05.596Z,100485.95
2024-05-09T03:39:38.180Z,100483.11
2024-05-09T03:42:10.208Z,100487.45
2024-05-09T03:44:44.708Z,100487.54
2024-05-09T03:47:17.774Z,100490.48
2024-05-09T03:49:50.295Z,100489.68
2024-05-09T03:52:25.928Z,100492.17
2024-05-09T03:54:58.698Z,100492.73
2024-05-09T03:57:30.868Z,100492.83
2024-05-09T04:00:07.364Z,100495.70
2024-05-09T04:02:44.564Z,100497.36
2024-05-09T04:05:18.052Z,100499.23
2024-05-09T04:07:50.769Z,100502.07
2024-05-09T04:10:30.904Z,100502.42
2024-05-09T04:13:06.368Z,100508.79
2024-05-09T04:15:38.896Z,100509.94
2024-05-09T04:18:12.778Z,100515.83
2024-05-09T04:20:45.513Z,100511.48
2024-05-09T04:23:17.854Z,100509.78
2024-05-09T04:25:50.597Z,100512.05
2024-05-09T04:28:29.691Z,100511.79
2024-05-09T04:31:03.679Z,100514.82
2024-05-09T04:33:37.930Z,100512.69
2024-05-09T04:36:10.993Z,100509.11
2024-05-09T04:38:45.059Z,100509.74
2024-05-09T04:41:18.412Z,100510.64
2024-05-09T04:43:54.831Z,100511.32
2024-05-09T04:46:27.868Z,100515.77
2024-05-09T04:49:00.034Z,100519.30
2024-05-09T04:51:34.707Z,100515.77
2024-05-09T04:54:10.566Z,100514.60
2024-05-09T04:56:43.861Z,100518.34
2024-05-09T04:59:16.455Z,100517.45
2024-05-09T05:01:49.111Z,100520.44
2024-05-09T05:04:24.196Z,100525.60
2024-05-09T05:06:55.168Z,100526.39
2024-05-09T05:09:28.571Z,100523.63
2024-05-09T05:12:03.605Z,100521.68
2024-05-09T05:14:36.733Z,100518.69
2024-05-09T05:17:09.171Z,100520.28
2024-05-09T05:19:43.526Z,100516.09
2024-05-09T05:22:16.338Z,100514.06
2024-05-09T05:24:48.495Z,100510.14
2024-05-09T05:27:22.177Z,100511.05
2024-05-09T05:29:54.807Z,100518.10
2024-05-09T05:32:39.138Z,100516.70
2024-05-09T05:35:12.484Z,100511.85
2024-05-09T05:37:45.843Z,100507.77
2024-05-09T05:40:27.882Z,100500.55
2024-05-09T05:43:09.574Z,100507.25
2024-05-09T05:45:43.799Z,100503.23
2024-05-09T05:48:17.941Z,100502.73
2024-05-09T05:50:50.672Z,100506.41
2024-05-09T05:53:24.099Z,100505.73
2024-05-09T05:55:56.519Z,100507.02
2024-05-09T05:58:28.600Z,100504.84
2024-05-09T06:01:00.767Z,100507.14
2024-05-09T06:03:38.493Z,100504.00
2024-05-09T06:06:12.133Z,100506.32
2024-05-09T06:08:45.361Z,100508.73
2024-05-09T06:11:18.227Z,100510.02
2024-05-09T06:13:50.760Z,100509.79
2024-05-09T06:16:26.462Z,100508.30
2024-05-09T06:18:59.599Z,100511.56
2024-05-09T06:21:33.152Z,100508.12
2024-05-09T06:24:08.507Z,100505.08
2024-05-09T06:26:46.532Z,100506.02
2024-05-09T06:29:19.438Z,100505.73
2024-05-09T06:31:52.459Z,100508.90
2024-05-09T06:34:25.159Z,100504.50
2024-05-09T06:36:57.810Z,100506.27
2024-05-09T06:39:30.520Z,100505.63
2024-05-09T06:42:06.196Z,100506.39
2024-05-09T06:44:38.824Z,100502.63
2024-05-09T06:47:10.923Z,100503.82
2024-05-09T06:49:44.119Z,100497.50
2024-05-09T06:52:16.616Z,100500.36
2024-05-09T06:54:48.761Z,100497.13
2024-05-09T06:57:22.888Z,100495.14
2024-05-09T07:00:00.041Z,100498.89
2024-05-09T07:02:35.359Z,100495.66
2024-05-09T07:05:08.801Z,100492.39
2024-05-09T07:07:42.016Z,100494.48
2024-05-09T07:10:21.644Z,100494.49
2024-05-09T07:12:57.873Z,100491.71
2024-05-09T07:15:30.222Z,100490.41
2024-05-09T07:18:09.157Z,100492.59
2024-05-09T07:20:43.166Z,100489.77
2024-05-09T07:23:16.549Z,100493.26
2024-05-09T07:25:49.066Z,100490.68
2024-05-09T07:28:23.392Z,100489.17
2024-05-09T07:30:56.139Z,100488.29
2024-05-09T07:33:28.844Z,100485.45
2024-05-09T07:36:01.314Z,100484.78
2024-05-09T07:38:34.611Z,100482.86
2024-05-09T07:41:08.937Z,100479.27
2024-05-09T07:43:42.358Z,100478.27
2024-05-09T07:54:07.457Z,100472.83
2024-05-09T07:56:40.172Z,100476.55
2024-05-09T07:59:15.684Z,100471.81
2024-05-09T08:01:56.769Z,100470.86
2024-05-09T08:04:30.140Z,100471.36
2024-05-09T08:07:05.732Z,100470.35
2024-05-09T08:09:39.732Z,100465.66
2024-05-09T08:12:16.436Z,100465.66
2024-05-09T08:14:48.462Z,100461.88
2024-05-09T08:17:20.625Z,100457.75
2024-05-09T08:19:56.363Z,100448.80
2024-05-09T08:22:32.606Z,100448.23
2024-05-09T08:25:05.516Z,100449.57
2024-05-09T08:27:37.921Z,100447.63
2024-05-09T08:30:21.334Z,100448.27
2024-05-09T08:32:58.227Z,100443.57
2024-05-09T08:35:30.864Z,100445.91
2024-05-09T08:38:07.807Z,100443.77
2024-05-09T08:40:39.775Z,100440.84
2024-05-09T08:43:14.776Z,100442.48
2024-05-09T08:45:52.503Z,100434.46
2024-05-09T08:48:29.203Z,100436.23
2024-05-09T08:51:02.344Z,100432.14
2024-05-09T08:53:35.471Z,100430.38
2024-05-09T08:56:08.018Z,100433.27
2024-05-09T08:58:40.238Z,100431.02
2024-05-09T09:01:13.823Z,100431.11
2024-05-09T09:03:48.766Z,100429.25
2024-05-09T09:06:25.416Z,100428.30
2024-05-09T09:08:58.582Z,100431.23
2024-05-09T09:11:30.959Z,100425.33
2024-05-09T09:14:03.837Z,100425.48
2024-05-09T09:16:37.417Z,100421.77
2024-05-09T09:19:09.918Z,100415.40
2024-05-09T09:21:54.556Z,100416.79
2024-05-09T09:24:28.907Z,100413.67
2024-05-09T09:27:06.314Z,100417.73
2024-05-09T09:29:44.673Z,100417.02
2024-05-09T09:32:18.407Z,100422.51
2024-05-09T09:34:53.699Z,100416.45
2024-05-09T09:37:32.355Z,100413.25
2024-05-09T09:40:08.955Z,100410.64
2024-05-09T09:42:55.489Z,100409.50
2024-05-09T09:45:29.764Z,100410.47
2024-05-09T09:48:03.672Z,100415.26
2024-05-09T09:50:39.019Z,100413.89
2024-05-09T09:53:13.306Z,100408.51
2024-05-09T09:55:47.774Z,100405.09
2024-05-09T09:58:20.461Z,100407.35
2024-05-09T10:00:55.693Z,100403.02
2024-05-09T10:03:29.198Z,100407.17
2024-05-09T10:06:03.240Z,100403.81
2024-05-09T10:08:37.865Z,100397.36
2024-05-09T10:11:11.074Z,100386.64
2024-05-09T10:13:47.134Z,100397.17
2024-05-09T10:16:24.143Z,100388.52
2024-05-09T10:18:56.746Z,100388.12
2024-05-09T10:21:29.202Z,100385.05
2024-05-09T10:24:04.511Z,100380.42
2024-05-09T10:26:38.844Z,100374.39
2024-05-09T10:29:19.061Z,100374.64
2024-05-09T10:31:52.182Z,100378.54
2024-05-09T10:34:26.138Z,100371.79
2024-05-09T10:37:05.059Z,100366.30
2024-05-09T10:39:39.636Z,100364.17
2024-05-09T10:42:15.645Z,100368.40
2024-05-09T10:44:48.931Z,100358.92
2024-05-09T10:47:23.686Z,100355.70
2024-05-09T10:49:58.665Z,100347.91
2024-05-09T10:52:32.096Z,100360.95
2024-05-09T10:55:06.717Z,100356.29
2024-05-09T10:57:43.479Z,100355.09
2024-05-09T11:00:26.995Z,100351.39
2024-05-09T11:03:06.802Z,100353.82
2024-05-09T11:05:43.940Z,100352.54
2024-05-09T11:08:17.358Z,100356.79
2024-05-09T11:10:50.759Z,100357.03
2024-05-09T11:13:33.729Z,100361.71
2024-05-09T11:16:08.082Z,100357.85
2024-05-09T11:18:45.409Z,100362.41
2024-05-09T11:21:18.731Z,100364.27
2024-05-09T11:23:50.813Z,100359.83
2024-05-09T11:26:25.483Z,100357.85
2024-05-09T11:28:57.902Z,100356.48
2024-05-09T11:31:30.140Z,100352.24
2024-05-09T11:34:05.310Z,100345.71
2024-05-09T11:36:40.518Z,100344.16
2024-05-09T11:39:16.540Z,100340.02
2024-05-09T11:41:48.928Z,100336.16
2024-05-09T11:44:21.047Z,100328.90
2024-05-09T11:46:54.475Z,100325.92
2024-05-09T11:49:27.948Z,100317.55
2024-05-09T11:52:00.756Z,100320.89
2024-05-09T11:54:38.905Z,100309.55
2024-05-09T11:57:11.745Z,100311.29
2024-05-09T11:59:48.042Z,100305.98
2024-05-09T12:02:20.854Z,100314.85
2024-05-09T12:04:55.605Z,100315.67
2024-05-09T12:07:30.229Z,100309.11
2024-05-09T12:10:06.193Z,100303.16
2024-05-09T12:12:40.604Z,100296.17
2024-05-09T12:15:15.981Z,100293.64
2024-05-09T12:17:50.916Z,100291.89
2024-05-09T12:20:33.060Z,100285.83
2024-05-09T12:23:10.769Z,100282.05
2024-05-09T12:25:49.008Z,100288.86
2024-05-09T12:28:22.399Z,100285.15
2024-05-09T12:30:58.431Z,100284.91
2024-05-09T12:33:31.017Z,100288.48
2024-05-09T12:36:07.313Z,100280.34
2024-05-09T12:38:39.091Z,100271.52
2024-05-09T12:41:12.362Z,100274.44
2024-05-09T12:43:45.255Z,100269.63
2024-05-09T12:46:20.477Z,100273.39
2024-05-09T12:48:57.002Z,100270.89
2024-05-09T12:51:31.378Z,100271.15
2024-05-09T12:54:15.121Z,100271.98
2024-05-09T12:56:48.314Z,100271.40
2024-05-09T12:59:20.547Z,100271.23
2024-05-09T13:02:01.032Z,100266.27
2024-05-09T13:04:35.490Z,100262.30
2024-05-09T13:07:08.727Z,100261.24
2024-05-09T13:09:40.884Z,100252.00
2024-05-09T13:12:14.970Z,100251.10
2024-05-09T13:14:47.789Z,100249.52
2024-05-09T13:17:20.334Z,100247.65
2024-05-09T13:19:56.433Z,100240.58
2024-05-09T13:22:29.262Z,100235.09
2024-05-09T13:25:03.477Z,100234.36
2024-05-09T13:27:36.655Z,100235.22
2024-05-09T13:30:17.631Z,100238.95
2024-05-09T13:32:55.370Z,100238.16
2024-05-09T13:35:28.442Z,100241.28
2024-05-09T13:38:03.900Z,100238.34
2024-05-09T13:40:36.937Z,100233.14
2024-05-09T13:43:09.831Z,100226.76
2024-05-09T13:45:43.298Z,100232.76
2024-05-09T13:48:16.663Z,100225.23
2024-05-09T13:50:48.894Z,100220.52
2024-05-09T13:53:20.948Z,100216.55
2024-05-09T13:55:54.399Z,100214.88
2024-05-09T13:58:27.142Z,100211.19
2024-05-09T14:00:59.326Z,100210.33
2024-05-09T14:03:34.048Z,100202.39
2024-05-09T14:06:12.766Z,100200.90
2024-05-09T14:08:46.224Z,100203.36
2024-05-09T14:11:18.458Z,100199.40
2024-05-09T14:13:50.526Z,100199.15
2024-05-09T14:16:26.642Z,100195.74
2024-05-09T14:18:59.250Z,100198.55
2024-05-09T14:21:32.381Z,100196.08
2024-05-09T14:24:05.286Z,100193.42
2024-05-09T14:26:37.668Z,100192.75
2024-05-09T14:29:09.972Z,100195.58
2024-05-09T14:31:43.597Z,100189.52
2024-05-09T14:34:16.617Z,100183.55
2024-05-09T14:36:49.356Z,100184.48
2024-05-09T14:39:22.187Z,100177.75
2024-05-09T14:41:56.783Z,100174.05
2024-05-09T14:44:29.143Z,100167.77
2024-05-09T14:47:03.874Z,100161.38
2024-05-09T14:49:36.405Z,100155.19
2024-05-09T14:52:09.533Z,100157.19
2024-05-09T14:54:42.399Z,100154.42
2024-05-09T14:57:15.297Z,100145.87
2024-05-09T14:59:49.137Z,100143.38
2024-05-09T15:02:21.802Z,100146.46
2024-05-09T15:04:54.907Z,100142.13
2024-05-09T15:07:30.356Z,100141.38
2024-05-09T15:10:11.598Z,100140.37
2024-05-09T15:12:48.990Z,100140.20
2024-05-09T15:15:25.291Z,100140.36
2024-05-09T15:18:00.767Z,100139.58
2024-05-09T15:20:36.691Z,100135.41
2024-05-09T15:23:09.607Z,100133.35
2024-05-09T15:25:42.494Z,100126.56
2024-05-09T15:28:15.027Z,100128.08
2024-05-09T15:30:47.920Z,100125.77
2024-05-09T15:33:20.342Z,100126.13
2024-05-09T15:35:55.075Z,100125.60
2024-05-09T15:38:28.326Z,100127.95
2024-05-09T15:41:00.909Z,100126.37
2024-05-09T15:43:33.991Z,100124.94
2024-05-09T15:46:07.133Z,100122.05
2024-05-09T15:48:41.891Z,100118.25
2024-05-09T15:51:16.777Z,100112.23
2024-05-09T15:53:49.113Z,100109.54
2024-05-09T15:56:23.504Z,100107.46
2024-05-09T15:58:56.363Z,100105.04
2024-05-09T16:01:29.376Z,100102.92
2024-05-09T16:04:04.062Z,100097.21
2024-05-09T16:06:37.483Z,100094.95
2024-05-09T16:09:09.987Z,100090.23
2024-05-09T16:11:43.584Z,100091.12
2024-05-09T16:14:16.869Z,100089.45
2024-05-09T16:16:49.358Z,100090.42
2024-05-09T16:19:22.369Z,100087.62
2024-05-09T16:21:55.102Z,100082.38
2024-05-09T16:24:27.742Z,100081.44
2024-05-09T16:26:59.786Z,100082.06
2024-05-09T16:29:32.363Z,100081.70
2024-05-09T16:32:05.424Z,100082.26
2024-05-09T16:34:37.855Z,100081.45
2024-05-09T16:37:15.450Z,100077.66
2024-05-09T16:39:48.674Z,100076.77
2024-05-09T16:42:20.846Z,100071.90
2024-05-09T16:44:56.829Z,100073.31
2024-05-09T16:47:29.254Z,100073.79
2024-05-09T16:50:05.024Z,100074.52
2024-05-09T16:52:38.164Z,100071.98
2024-05-09T16:55:10.858Z,100073.73
2024-05-09T16:57:44.364Z,100071.64
2024-05-09T17:00:25.950Z,100072.03
2024-05-09T17:03:09.787Z,100077.13
2024-05-09T17:05:43.839Z,100078.76
2024-05-09T17:08:19.863Z,100077.05
2024-05-09T17:10:55.400Z,100075.58
2024-05-09T17:13:28.231Z,100074.32
2024-05-09T17:16:01.137Z,100069.48
2024-05-09T17:18:36.547Z,100069.23
2024-05-09T17:21:09.381Z,100071.33
2024-05-09T17:23:44.322Z,100069.80
2024-05-09T17:26:16.544Z,100068.88
2024-05-09T17:28:48.926Z,100072.76
2024-05-09T17:31:22.690Z,100072.59
2024-05-09T17:33:56.070Z,100070.23
2024-05-09T17:36:28.581Z,100071.24
2024-05-09T17:39:02.350Z,100069.90
2024-05-09T17:41:34.952Z,100071.66
2024-05-09T17:44:10.274Z,100066.41
2024-05-09T17:46:46.346Z,100075.11
2024-05-09T17:49:19.411Z,100069.59
2024-05-09T17:51:55.740Z,100067.36
2024-05-09T17:54:27.964Z,100066.48
2024-05-09T17:57:00.445Z,100069.11
2024-05-09T17:59:35.491Z,100069.10
2024-05-09T18:02:12.305Z,100073.44
2024-05-09T18:04:45.536Z,100073.48
2024-05-09T18:07:17.937Z,100073.65
2024-05-09T18:09:50.518Z,100079.05
2024-05-09T18:12:25.887Z,100075.73
2024-05-09T18:14:57.920Z,100075.77
2024-05-09T18:17:30.707Z,100080.40
2024-05-09T18:20:08.975Z,100077.70
2024-05-09T18:22:42.316Z,100075.25
2024-05-09T18:25:15.005Z,100074.75
2024-05-09T18:27:50.812Z,100074.13
2024-05-09T18:30:31.591Z,100081.79
2024-05-09T18:33:08.489Z,100076.87
2024-05-09T18:35:40.011Z,100079.84
2024-05-09T18:38:15.505Z,100084.08
2024-05-09T18:40:49.383Z,100079.99
2024-05-09T18:43:31.128Z,100078.13
2024-05-09T18:46:08.743Z,100085.04
2024-05-09T18:48:41.217Z,100085.80
2024-05-09T18:51:16.462Z,100082.89
2024-05-09T18:53:48.967Z,100086.27
2024-05-09T18:56:22.096Z,100091.67
2024-05-09T18:58:54.830Z,100090.94
2024-05-09T19:01:29.326Z,100096.85
2024-05-09T19:04:04.978Z,100098.91
2024-05-09T19:06:39.162Z,100107.34
2024-05-09T19:09:11.716Z,100108.12
2024-05-09T19:11:45.389Z,100110.33
2024-05-09T19:14:17.717Z,100110.55
2024-05-09T19:16:49.685Z,100112.48
2024-05-09T19:19:22.543Z,100115.02
2024-05-09T19:21:58.091Z,100114.70
2024-05-09T19:24:30.744Z,100121.10
2024-05-09T19:27:05.667Z,100121.20
2024-05-09T19:29:37.780Z,100120.60
2024-05-09T19:32:15.096Z,100121.77
2024-05-09T19:34:47.865Z,100117.73
2024-05-09T19:37:20.238Z,100122.52
2024-05-09T19:39:53.670Z,100128.38
2024-05-09T19:42:32.115Z,100131.71
2024-05-09T19:45:05.287Z,100129.02
2024-05-09T19:47:37.761Z,100127.48
2024-05-09T19:50:14.141Z,100133.90
2024-05-09T19:52:52.420Z,100135.44
2024-05-09T19:55:25.339Z,100140.05
2024-05-09T19:57:59.892Z,100138.55
2024-05-09T20:00:36.737Z,100138.77
2024-05-09T20:03:12.857Z,100137.77
2024-05-09T20:05:49.537Z,100136.32
2024-05-09T20:08:24.504Z,100138.39
2024-05-09T20:10:55.299Z,100140.02
2024-05-09T20:13:28.951Z,100141.55
2024-05-09T20:16:03.278Z,100140.21
2024-05-09T20:18:39.059Z,100144.49
2024-05-09T20:21:12.480Z,100147.88
2024-05-09T20:23:45.062Z,100150.61
2024-05-09T20:26:17.901Z,100156.27
2024-05-09T20:28:50.439Z,100153.13
2024-05-09T20:31:26.359Z,100157.33
2024-05-09T20:33:59.472Z,100158.38
2024-05-09T20:36:32.489Z,100160.98
2024-05-09T20:39:04.805Z,100164.58
2024-05-09T20:41:45.553Z,100163.88
2024-05-09T20:44:18.812Z,100166.93
2024-05-09T20:46:50.857Z,100168.42
2024-05-09T20:49:24.593Z,100170.34
2024-05-09T20:51:57.832Z,100165.81
2024-05-09T20:54:30.552Z,100170.06
2024-05-09T20:57:04.296Z,100168.94
2024-05-09T20:59:38.225Z,100170.02
2024-05-09T21:02:10.847Z,100170.52
2024-05-09T21:04:43.952Z,100168.24
2024-05-09T21:07:17.034Z,100167.07
2024-05-09T21:09:49.533Z,100166.27
2024-05-09T21:12:22.612Z,100167.80
2024-05-09T21:14:54.874Z,100165.45
2024-05-09T21:17:27.928Z,100164.16
2024-05-09T21:20:00.258Z,100168.95
2024-05-09T21:22:34.725Z,100166.63
2024-05-09T21:25:08.248Z,100166.60
2024-05-09T21:27:40.559Z,100169.59
2024-05-09T21:30:22.268Z,100169.59
2024-05-09T21:33:00.943Z,100167.65
2024-05-09T21:35:33.522Z,100170.06
2024-05-09T21:38:07.251Z,100167.03
2024-05-09T21:40:39.492Z,100170.34
2024-05-09T21:43:12.635Z,100172.80
2024-05-09T21:45:46.031Z,100175.92
2024-05-09T21:48:18.651Z,100169.95
2024-05-09T21:50:51.153Z,100170.66
2024-05-09T21:53:26.653Z,100171.59
2024-05-09T21:55:59.122Z,100167.40
2024-05-09T21:58:32.118Z,100168.52
2024-05-09T22:01:05.840Z,100167.59
2024-05-09T22:03:39.373Z,100167.38
2024-05-09T22:06:14.568Z,100165.20
2024-05-09T22:08:46.848Z,100167.45
2024-05-09T22:11:19.340Z,100170.79
2024-05-09T22:13:52.292Z,100177.64
2024-05-09T22:16:25.215Z,100177.16
2024-05-09T22:19:01.095Z,100177.43
2024-05-09T22:21:36.938Z,100178.55
2024-05-09T22:24:09.637Z,100179.05
2024-05-09T22:26:42.700Z,100179.17
2024-05-09T22:29:15.312Z,100176.67
2024-05-09T22:31:48.018Z,100178.11
2024-05-09T22:34:20.042Z,100179.36
2024-05-09T22:36:53.869Z,100184.77
2024-05-09T22:39:26.459Z,100187.06
2024-05-09T22:41:59.079Z,100186.73
2024-05-09T22:44:34.556Z,100184.05
2024-05-09T22:47:07.691Z,100181.41
2024-05-09T22:49:39.675Z,100178.39
2024-05-09T22:52:12.579Z,100175.73
2024-05-09T22:54:45.013Z,100177.30
2024-05-09T22:57:17.881Z,100179.46
2024-05-09T22:59:50.442Z,100180.72
2024-05-09T23:02:25.660Z,100176.99
2024-05-09T23:04:57.794Z,100179.46
2024-05-09T23:07:33.755Z,100178.20
2024-05-09T23:10:13.201Z,100181.22
2024-05-09T23:12:49.468Z,100176.07
2024-05-09T23:15:22.290Z,100172.20
2024-05-09T23:17:55.276Z,100171.67
2024-05-09T23:20:35.435Z,100169.71
2024-05-09T23:23:12.007Z,100169.20
2024-05-09T23:25:45.005Z,100168.29
2024-05-09T23:28:18.766Z,100160.27
2024-05-09T23:30:51.092Z,100162.06
2024-05-09T23:33:24.938Z,100161.00
2024-05-09T23:35:57.873Z,100162.09
2024-05-09T23:38:32.487Z,100158.01
2024-05-09T23:41:07.402Z,100160.70
2024-05-09T23:43:39.394Z,100165.29
2024-05-09T23:46:14.484Z,100162.27
2024-05-09T23:48:47.700Z,100160.51
2024-05-09T23:51:19.639Z,100162.42
2024-05-09T23:53:52.518Z,100162.62
2024-05-09T23:56:25.313Z,100163.00
2024-05-09T23:58:58.939Z,100164.21
